createdAt,value
2019-04-04T00:02:25.210Z,2.70
2019-04-04T00:04:57.677Z,2.90
2019-04-04T00:07:29.018Z,2.53
2019-04-04T00:09:59.461Z,2.60
2019-04-04T00:12:29.769Z,2.70
2019-04-04T00:15:00.107Z,2.67
2019-04-04T00:17:30.482Z,2.50
2019-04-04T00:20:01.416Z,2.47
2019-04-04T00:22:31.901Z,2.83
2019-04-04T00:25:02.240Z,2.80
2019-04-04T00:27:32.533Z,2.70
2019-04-04T00:30:02.901Z,2.40
2019-04-04T00:32:33.238Z,2.50
2019-04-04T00:35:03.538Z,2.33
2019-04-04T00:37:35.740Z,2.63
2019-04-04T00:40:06.177Z,2.33
2019-04-04T00:42:36.457Z,2.60
2019-04-04T00:45:07.947Z,2.80
2019-04-04T00:47:38.923Z,2.87
2019-04-04T00:50:09.262Z,3.07
2019-04-04T00:52:41.367Z,3.00
2019-04-04T00:55:11.750Z,2.77
2019-04-04T00:57:42.093Z,2.80
2019-04-04T01:00:12.485Z,3.30
2019-04-04T01:02:42.790Z,2.93
2019-04-04T01:05:14.198Z,3.57
2019-04-04T01:07:44.632Z,3.13
2019-04-04T01:10:15.010Z,3.30
2019-04-04T01:12:45.312Z,3.37
2019-04-04T01:15:15.825Z,3.53
2019-04-04T01:17:46.142Z,3.50
2019-04-04T01:20:20.038Z,4.27
2019-04-04T01:22:49.101Z,3.47
2019-04-04T01:25:19.453Z,3.23
2019-04-04T01:27:49.757Z,3.40
2019-04-04T01:30:20.188Z,3.10
2019-04-04T01:32:50.484Z,3.37
2019-04-04T01:35:22.428Z,3.30
2019-04-04T01:37:52.836Z,3.30
2019-04-04T01:40:23.167Z,3.33
2019-04-04T01:42:53.553Z,3.37
2019-04-04T01:45:23.871Z,3.80
2019-04-04T01:47:54.165Z,3.80
2019-04-04T01:50:24.523Z,3.87
2019-04-04T01:52:54.813Z,3.43
2019-04-04T01:55:25.130Z,3.27
2019-04-04T01:57:55.458Z,2.90
2019-04-04T02:00:25.781Z,3.50
2019-04-04T02:02:56.081Z,3.70
2019-04-04T02:05:27.059Z,3.13
2019-04-04T02:07:58.866Z,3.33
2019-04-04T02:10:29.802Z,3.37
2019-04-04T02:13:00.113Z,3.47
2019-04-04T02:15:30.537Z,3.40
2019-04-04T02:18:00.838Z,3.53
2019-04-04T02:20:31.128Z,3.73
2019-04-04T02:23:01.940Z,3.60
2019-04-04T02:25:34.089Z,3.80
2019-04-04T02:28:04.360Z,3.83
2019-04-04T02:30:34.655Z,3.67
2019-04-04T02:33:05.036Z,4.00
2019-04-04T02:35:35.362Z,3.87
2019-04-04T02:38:05.685Z,4.00
2019-04-04T02:40:36.077Z,3.80
2019-04-04T02:43:06.366Z,4.10
2019-04-04T02:45:38.855Z,4.03
2019-04-04T02:48:08.623Z,4.33
2019-04-04T02:50:38.962Z,4.50
2019-04-04T02:53:09.330Z,4.37
2019-04-04T02:55:39.911Z,5.00
2019-04-04T02:58:13.939Z,4.80
2019-04-04T03:00:42.157Z,4.13
2019-04-04T03:03:12.506Z,4.70
2019-04-04T03:05:42.887Z,4.77
2019-04-04T03:08:13.417Z,5.00
2019-04-04T03:10:47.603Z,4.47
2019-04-04T03:13:15.697Z,4.67
2019-04-04T03:15:48.211Z,4.20
2019-04-04T03:18:17.934Z,4.47
2019-04-04T03:20:50.401Z,4.50
2019-04-04T03:23:20.287Z,4.90
2019-04-04T03:25:51.137Z,5.20
2019-04-04T03:28:21.426Z,4.90
2019-04-04T03:31:01.329Z,4.90
2019-04-04T03:33:29.409Z,4.80
2019-04-04T03:35:57.538Z,5.10
2019-04-04T03:38:27.602Z,5.13
2019-04-04T03:40:58.792Z,4.83
2019-04-04T03:43:29.147Z,5.07
2019-04-04T03:46:01.349Z,5.37
2019-04-04T03:48:31.434Z,5.07
2019-04-04T03:51:04.792Z,5.13
2019-04-04T03:53:33.741Z,5.20
2019-04-04T03:56:04.134Z,5.27
2019-04-04T03:58:34.594Z,5.77
2019-04-04T04:01:04.914Z,6.90
2019-04-04T04:03:35.215Z,6.10
2019-04-04T04:06:08.392Z,5.57
2019-04-04T04:08:37.446Z,5.73
2019-04-04T04:11:08.078Z,6.27
2019-04-04T04:13:38.548Z,6.47
2019-04-04T04:17:11.849Z,6.87
2019-04-04T04:19:42.595Z,8.13
2019-04-04T04:22:18.283Z,9.20
2019-04-04T04:24:47.166Z,7.30
2019-04-04T04:27:17.903Z,6.47
2019-04-04T04:29:48.927Z,6.83
2019-04-04T04:32:21.858Z,7.10
2019-04-04T04:34:51.885Z,7.40
2019-04-04T04:37:22.793Z,6.80
2019-04-04T04:39:53.266Z,6.60
2019-04-04T04:42:26.548Z,6.57
2019-04-04T04:44:56.928Z,6.43
2019-04-04T04:47:27.679Z,6.93
2019-04-04T04:49:58.642Z,7.20
2019-04-04T04:52:29.331Z,6.90
2019-04-04T04:54:59.670Z,14.03
2019-04-04T04:57:30.730Z,6.80
2019-04-04T05:00:01.625Z,7.30
2019-04-04T05:02:32.555Z,8.27
2019-04-04T05:05:02.901Z,17.93
2019-04-04T05:07:34.204Z,7.73
2019-04-04T05:10:04.972Z,6.70
2019-04-04T05:12:36.268Z,9.43
2019-04-04T05:15:06.878Z,6.87
2019-04-04T05:19:24.382Z,7.83
2019-04-04T05:21:54.726Z,7.43
2019-04-04T05:24:25.049Z,12.40
2019-04-04T05:26:55.353Z,8.60
2019-04-04T05:29:25.649Z,8.23
2019-04-04T05:31:55.955Z,8.27
2019-04-04T05:34:26.277Z,8.30
2019-04-04T05:36:56.565Z,9.47
2019-04-04T05:39:26.878Z,10.83
2019-04-04T05:41:58.058Z,9.93
2019-04-04T05:44:29.239Z,10.07
2019-04-04T05:46:59.555Z,9.97
2019-04-04T05:49:29.847Z,9.43
2019-04-04T05:52:00.187Z,9.83
2019-04-04T05:54:30.506Z,9.93
2019-04-04T05:57:03.180Z,10.47
2019-04-04T05:59:32.965Z,9.97
2019-04-04T06:02:03.316Z,10.43
2019-04-04T06:04:33.615Z,9.77
2019-04-04T06:07:04.313Z,9.97
2019-04-04T06:09:35.332Z,9.60
2019-04-04T06:12:05.674Z,9.40
2019-04-04T06:14:36.047Z,8.17
2019-04-04T06:17:07.197Z,9.30
2019-04-04T06:19:38.458Z,8.77
2019-04-04T06:22:08.777Z,9.77
2019-04-04T06:24:39.500Z,10.50
2019-04-04T06:27:09.949Z,10.57
2019-04-04T06:29:40.457Z,9.97
2019-04-04T06:32:10.773Z,9.63
2019-04-04T06:34:42.178Z,10.30
2019-04-04T06:37:13.102Z,10.30
2019-04-04T06:39:43.539Z,10.37
2019-04-04T06:42:13.965Z,10.17
2019-04-04T06:44:44.440Z,10.47
2019-04-04T06:47:16.486Z,9.63
2019-04-04T06:49:46.951Z,9.37
2019-04-04T06:52:18.569Z,9.93
2019-04-04T06:54:49.201Z,9.67
2019-04-04T06:57:19.525Z,9.57
2019-04-04T06:59:51.241Z,10.37
2019-04-04T07:02:21.959Z,10.03
2019-04-04T07:04:53.696Z,9.43
2019-04-04T07:07:24.158Z,10.20
2019-04-04T07:09:54.550Z,9.97
2019-04-04T07:12:28.395Z,10.70
2019-04-04T07:14:56.994Z,10.30
2019-04-04T07:17:27.408Z,9.43
2019-04-04T07:19:57.708Z,9.87
2019-04-04T07:22:28.046Z,9.10
2019-04-04T07:25:00.991Z,9.90
2019-04-04T07:27:30.386Z,9.97
2019-04-04T07:30:00.689Z,9.83
2019-04-04T07:32:31.049Z,10.07
2019-04-04T07:35:01.433Z,10.63
2019-04-04T07:37:31.841Z,9.53
2019-04-04T07:40:03.445Z,9.80
2019-04-04T07:42:34.449Z,9.53
2019-04-04T07:45:05.343Z,10.20
2019-04-04T07:47:35.902Z,8.87
2019-04-04T07:50:06.748Z,9.40
2019-04-04T07:52:37.105Z,10.27
2019-04-04T07:55:10.008Z,9.80
2019-04-04T07:57:39.969Z,9.67
2019-04-04T08:00:10.606Z,10.50
2019-04-04T08:02:41.037Z,9.77
2019-04-04T08:05:13.168Z,9.67
2019-04-04T08:07:43.541Z,10.10
2019-04-04T08:10:20.345Z,10.40
2019-04-04T08:12:46.135Z,11.47
2019-04-04T08:15:16.454Z,11.23
2019-04-04T08:17:46.861Z,11.80
2019-04-04T08:21:06.341Z,10.43
2019-04-04T08:23:36.661Z,9.13
2019-04-04T08:26:09.987Z,9.97
2019-04-04T08:28:39.525Z,10.00
2019-04-04T08:31:10.043Z,9.97
2019-04-04T08:33:41.124Z,8.87
2019-04-04T08:36:11.422Z,8.67
2019-04-04T08:38:42.178Z,8.90
2019-04-04T08:41:12.951Z,8.80
2019-04-04T08:43:43.285Z,8.50
2019-04-04T08:46:13.658Z,9.10
2019-04-04T08:48:43.962Z,8.17
2019-04-04T08:51:56.053Z,9.07
2019-04-04T08:54:28.291Z,9.00
2019-04-04T08:57:00.609Z,8.23
2019-04-04T08:59:30.935Z,8.53
2019-04-04T09:02:01.238Z,9.40
2019-04-04T09:04:31.639Z,8.03
2019-04-04T09:07:01.943Z,9.53
2019-04-04T09:09:34.652Z,8.63
2019-04-04T09:12:04.257Z,7.90
2019-04-04T09:14:34.556Z,9.33
2019-04-04T09:17:04.942Z,9.00
2019-04-04T09:19:35.250Z,9.23
2019-04-04T09:22:06.206Z,9.63
2019-04-04T09:24:36.497Z,8.00
2019-04-04T09:27:06.378Z,8.90
2019-04-04T09:29:36.697Z,8.53
2019-04-04T09:32:06.576Z,8.13
2019-04-04T09:34:36.907Z,8.43
2019-04-04T09:37:08.758Z,8.90
2019-04-04T09:39:39.967Z,8.80
2019-04-04T09:42:10.265Z,9.33
2019-04-04T09:44:41.116Z,9.33
2019-04-04T09:47:11.455Z,9.27
2019-04-04T09:49:41.823Z,8.40
2019-04-04T09:52:12.136Z,8.77
2019-04-04T09:54:42.633Z,9.13
2019-04-04T09:57:12.948Z,9.53
2019-04-04T09:59:43.313Z,8.30
2019-04-04T10:02:13.641Z,9.70
2019-04-04T10:04:43.984Z,9.47
2019-04-04T10:07:14.299Z,8.60
2019-04-04T10:09:44.630Z,9.57
2019-04-04T10:12:14.983Z,10.30
2019-04-04T10:14:45.314Z,9.77
2019-04-04T10:17:15.679Z,9.07
2019-04-04T10:19:46.019Z,11.20
2019-04-04T10:22:17.364Z,9.80
2019-04-04T10:24:47.706Z,10.10
2019-04-04T10:27:18.014Z,9.67
2019-04-04T10:29:48.417Z,9.33
2019-04-04T10:32:18.889Z,9.80
2019-04-04T10:34:49.218Z,9.50
2019-04-04T10:37:19.518Z,10.03
2019-04-04T10:39:49.845Z,10.40
2019-04-04T10:42:20.243Z,10.93
2019-04-04T10:44:50.570Z,10.73
2019-04-04T10:47:20.883Z,10.67
2019-04-04T10:49:51.494Z,11.37
2019-04-04T10:52:21.847Z,11.37
2019-04-04T10:54:52.468Z,11.13
2019-04-04T10:57:24.094Z,11.33
2019-04-04T10:59:55.908Z,11.03
2019-04-04T11:02:29.090Z,11.30
2019-04-04T11:04:59.626Z,11.00
2019-04-04T11:07:29.943Z,12.07
2019-04-04T11:10:00.259Z,11.90
2019-04-04T11:12:30.601Z,12.73
2019-04-04T11:15:00.931Z,12.83
2019-04-04T11:17:31.282Z,12.07
2019-04-04T11:20:01.642Z,11.73
2019-04-04T11:22:31.949Z,12.37
2019-04-04T11:25:02.310Z,12.13
2019-04-04T11:27:32.655Z,12.23
2019-04-04T11:30:03.119Z,11.83
2019-04-04T11:32:33.578Z,12.53
2019-04-04T11:35:04.317Z,13.60
2019-04-04T11:37:34.700Z,13.17
2019-04-04T11:40:05.570Z,13.17
2019-04-04T11:42:36.208Z,13.47
2019-04-04T11:45:07.138Z,13.00
2019-04-04T11:47:37.996Z,14.37
2019-04-04T11:50:10.729Z,14.23
2019-04-04T11:52:41.144Z,14.30
2019-04-04T11:55:11.609Z,14.13
2019-04-04T11:57:42.998Z,14.43
2019-04-04T12:00:17.892Z,14.50
2019-04-04T12:02:48.256Z,14.47
2019-04-04T12:05:18.736Z,15.13
2019-04-04T12:07:49.009Z,15.00
2019-04-04T12:10:19.382Z,15.23
2019-04-04T12:12:49.924Z,14.83
2019-04-04T12:15:20.268Z,15.77
2019-04-04T12:17:50.655Z,16.13
2019-04-04T12:20:21.070Z,16.97
2019-04-04T12:22:52.095Z,16.63
2019-04-04T12:25:22.877Z,16.30
2019-04-04T12:27:53.202Z,16.80
2019-04-04T12:30:23.510Z,15.80
2019-04-04T12:32:53.878Z,17.20
2019-04-04T12:35:24.213Z,17.53
2019-04-04T12:37:54.562Z,18.03
2019-04-04T12:40:24.903Z,16.77
2019-04-04T12:42:55.341Z,16.37
2019-04-04T12:45:25.989Z,16.80
2019-04-04T12:47:58.175Z,18.13
2019-04-04T12:50:28.570Z,17.67
2019-04-04T12:52:59.077Z,16.03
2019-04-04T12:55:29.430Z,18.50
2019-04-04T12:58:00.749Z,17.50
2019-04-04T13:00:31.184Z,18.73
2019-04-04T13:03:01.896Z,18.87
2019-04-04T13:05:32.241Z,18.43
2019-04-04T13:08:02.790Z,16.90
2019-04-04T13:10:33.728Z,17.77
2019-04-04T13:13:06.040Z,18.40
2019-04-04T13:15:36.082Z,18.10
2019-04-04T13:18:06.430Z,18.63
2019-04-04T13:20:36.840Z,18.40
2019-04-04T13:23:08.262Z,17.17
2019-04-04T13:25:39.793Z,17.40
2019-04-04T13:28:10.371Z,17.60
2019-04-04T13:30:40.834Z,18.70
2019-04-04T13:33:11.149Z,17.30
2019-04-04T13:35:41.609Z,19.27
2019-04-04T13:38:11.973Z,19.30
2019-04-04T13:40:45.871Z,18.47
2019-04-04T13:43:14.235Z,18.93
2019-04-04T13:45:44.633Z,17.30
2019-04-04T13:48:14.958Z,17.43
2019-04-04T13:50:45.298Z,17.23
2019-04-04T13:53:15.801Z,17.70
2019-04-04T13:55:46.362Z,18.53
2019-04-04T13:58:17.623Z,17.53
2019-04-04T14:00:49.012Z,17.60
2019-04-04T14:03:19.513Z,17.70
2019-04-04T14:05:51.041Z,17.77
2019-04-04T14:08:21.556Z,18.27
2019-04-04T14:10:58.111Z,18.47
2019-04-04T14:13:26.175Z,16.23
2019-04-04T14:15:57.173Z,16.67
2019-04-04T14:18:38.952Z,16.20
2019-04-04T14:21:03.986Z,16.83
2019-04-04T14:23:32.554Z,16.30
2019-04-04T14:26:03.562Z,16.60
2019-04-04T14:28:33.941Z,16.73
2019-04-04T14:31:08.375Z,15.93
2019-04-04T14:33:39.374Z,15.90
2019-04-04T14:36:11.184Z,16.03
2019-04-04T14:38:42.615Z,15.27
2019-04-04T14:41:13.220Z,14.50
2019-04-04T14:43:45.652Z,14.83
2019-04-04T14:46:18.088Z,14.03
2019-04-04T14:48:48.416Z,13.57
2019-04-04T14:51:18.778Z,13.20
2019-04-04T14:53:49.407Z,14.57
2019-04-04T14:56:19.753Z,14.63
2019-04-04T14:58:50.925Z,13.27
2019-04-04T15:01:24.089Z,14.37
2019-04-04T15:03:54.430Z,14.20
2019-04-04T15:06:24.771Z,12.63
2019-04-04T15:08:56.193Z,13.60
2019-04-04T15:11:28.421Z,13.30
2019-04-04T15:13:59.115Z,13.83
2019-04-04T15:16:29.425Z,13.20
2019-04-04T15:19:00.264Z,12.23
2019-04-04T15:21:34.823Z,11.77
2019-04-04T15:24:05.072Z,12.70
2019-04-04T15:26:35.753Z,11.00
2019-04-04T15:29:07.197Z,10.87
2019-04-04T15:31:40.019Z,11.77
2019-04-04T15:34:11.539Z,11.80
2019-04-04T15:36:43.119Z,11.83
2019-04-04T15:39:17.758Z,11.37
2019-04-04T15:41:50.089Z,12.20
2019-04-04T15:44:21.445Z,12.07
2019-04-04T15:46:52.960Z,11.40
2019-04-04T15:49:24.673Z,12.70
2019-04-04T15:51:56.393Z,12.00
2019-04-04T15:54:28.006Z,12.10
2019-04-04T15:56:59.789Z,12.33
2019-04-04T15:59:32.459Z,11.70
2019-04-04T16:02:04.610Z,11.33
2019-04-04T16:04:36.609Z,11.20
2019-04-04T16:07:09.661Z,10.33
2019-04-04T16:09:41.676Z,10.60
2019-04-04T16:12:13.185Z,11.27
2019-04-04T16:14:44.458Z,11.13
2019-04-04T16:17:16.205Z,11.03
2019-04-04T16:19:48.166Z,10.37
2019-04-04T16:22:19.842Z,10.87
2019-04-04T16:24:54.333Z,10.10
2019-04-04T16:27:25.616Z,10.40
2019-04-04T16:29:57.499Z,10.47
2019-04-04T16:32:29.068Z,10.23
2019-04-04T16:35:02.670Z,11.27
2019-04-04T16:37:34.421Z,10.80
2019-04-04T16:40:09.193Z,11.00
2019-04-04T16:42:40.163Z,11.23
2019-04-04T16:45:11.916Z,11.20
2019-04-04T16:47:44.250Z,11.70
2019-04-04T16:50:16.702Z,11.50
2019-04-04T16:52:48.850Z,11.57
2019-04-04T16:55:22.134Z,11.70
2019-04-04T16:57:58.827Z,11.13
2019-04-04T17:00:35.175Z,11.63
2019-04-04T17:03:08.523Z,11.40
2019-04-04T17:05:39.120Z,10.23
2019-04-04T17:08:09.730Z,9.93
2019-04-04T17:10:40.381Z,9.83
2019-04-04T17:13:12.322Z,9.87
2019-04-04T17:15:42.795Z,10.00
2019-04-04T17:18:13.124Z,9.87
2019-04-04T17:20:43.459Z,9.23
2019-04-04T17:23:14.883Z,9.23
2019-04-04T17:25:45.220Z,9.47
2019-04-04T17:28:15.723Z,8.00
2019-04-04T17:30:46.183Z,8.83
2019-04-04T17:33:16.484Z,8.33
2019-04-04T17:35:46.865Z,8.00
2019-04-04T17:38:18.109Z,8.90
2019-04-04T17:40:48.513Z,9.27
2019-04-04T17:43:18.801Z,9.63
2019-04-04T17:45:49.407Z,8.70
2019-04-04T17:48:19.929Z,9.67
2019-04-04T17:50:50.687Z,8.87
2019-04-04T17:53:21.412Z,8.80
2019-04-04T17:55:54.600Z,9.00
2019-04-04T17:58:24.107Z,9.63
2019-04-04T18:00:54.645Z,9.63
2019-04-04T18:03:24.964Z,10.20
2019-04-04T18:05:56.345Z,9.90
2019-04-04T18:08:26.648Z,9.37
2019-04-04T18:10:56.950Z,9.40
2019-04-04T18:13:28.340Z,9.23
2019-04-04T18:15:58.795Z,9.97
2019-04-04T18:18:29.091Z,9.97
2019-04-04T18:21:45.220Z,8.53
2019-04-04T18:24:15.095Z,8.33
2019-04-04T18:26:45.492Z,9.27
2019-04-04T18:29:15.877Z,8.73
2019-04-04T18:31:46.234Z,8.73
2019-04-04T18:34:16.675Z,9.20
2019-04-04T18:36:47.394Z,8.83
2019-04-04T18:39:17.762Z,9.50
2019-04-04T18:44:14.805Z,9.73
2019-04-04T18:46:45.242Z,8.90
2019-04-04T18:49:15.558Z,9.40
2019-04-04T18:51:45.895Z,9.63
2019-04-04T18:54:16.237Z,8.53
2019-04-04T18:56:46.824Z,8.50
2019-04-04T18:59:18.273Z,8.10
2019-04-04T19:01:48.533Z,7.77
2019-04-04T19:04:18.849Z,7.90
2019-04-04T19:06:49.314Z,7.67
2019-04-04T19:09:19.637Z,8.10
2019-04-04T19:11:50.000Z,7.23
2019-04-04T19:14:20.386Z,8.37
2019-04-04T19:16:50.806Z,8.23
2019-04-04T19:19:21.376Z,8.53
2019-04-04T19:21:54.082Z,9.03
2019-04-04T19:24:24.784Z,8.57
2019-04-04T19:26:54.762Z,9.23
2019-04-04T19:29:25.066Z,9.30
2019-04-04T19:31:55.458Z,9.17
2019-04-04T19:34:25.801Z,9.00
2019-04-04T19:36:56.217Z,8.83
2019-04-04T19:39:26.642Z,9.73
2019-04-04T19:41:56.929Z,9.87
2019-04-04T19:44:28.366Z,9.73
2019-04-04T19:46:58.741Z,9.10
2019-04-04T19:49:29.041Z,10.27
2019-04-04T19:51:59.348Z,9.73
2019-04-04T19:54:29.689Z,10.03
2019-04-04T19:57:00.026Z,9.80
2019-04-04T19:59:30.365Z,9.80
2019-04-04T20:02:00.932Z,10.13
2019-04-04T20:04:31.274Z,10.03
2019-04-04T20:07:23.119Z,10.33
2019-04-04T20:09:53.017Z,9.63
2019-04-04T20:12:23.721Z,10.77
2019-04-04T20:14:54.154Z,10.47
2019-04-04T20:17:24.755Z,11.27
2019-04-04T20:19:55.144Z,11.23
2019-04-04T20:22:25.485Z,10.97
2019-04-04T20:24:57.515Z,12.50
2019-04-04T20:27:28.612Z,12.27
2019-04-04T20:29:58.929Z,12.10
2019-04-04T20:32:29.295Z,12.43
2019-04-04T20:35:00.849Z,11.70
2019-04-04T20:37:31.166Z,11.97
2019-04-04T20:40:01.506Z,11.60
2019-04-04T20:42:31.812Z,11.37
2019-04-04T20:45:02.486Z,10.57
2019-04-04T20:47:33.912Z,12.07
2019-04-04T20:50:04.582Z,11.37
2019-04-04T20:52:34.884Z,11.83
2019-04-04T20:55:05.660Z,11.10
2019-04-04T20:57:36.017Z,11.30
2019-04-04T21:00:07.051Z,11.40
2019-04-04T21:02:37.438Z,10.97
2019-04-04T21:05:08.331Z,10.83
2019-04-04T21:07:39.078Z,11.00
2019-04-04T21:10:09.542Z,10.87
2019-04-04T21:12:40.315Z,10.87
2019-04-04T21:15:11.039Z,10.97
2019-04-04T21:17:41.708Z,10.77
2019-04-04T21:20:12.009Z,11.27
2019-04-04T21:23:27.595Z,10.40
2019-04-04T21:25:57.957Z,10.93
2019-04-04T21:28:28.404Z,10.60
2019-04-04T21:30:58.849Z,9.83
2019-04-04T21:33:29.163Z,10.23
2019-04-04T21:36:09.339Z,10.60
2019-04-04T21:38:39.922Z,10.70
2019-04-04T21:41:10.230Z,10.27
2019-04-04T21:43:41.338Z,10.37
2019-04-04T21:46:11.633Z,10.67
2019-04-04T21:48:41.960Z,10.20
2019-04-04T21:51:12.334Z,11.00
2019-04-04T21:53:42.850Z,10.57
2019-04-04T21:56:13.570Z,10.97
2019-04-04T21:58:43.997Z,10.07
2019-04-04T22:01:14.519Z,10.17
2019-04-04T22:03:44.850Z,9.60
2019-04-04T22:06:15.262Z,10.67
2019-04-04T22:08:47.579Z,10.97
2019-04-04T22:11:17.911Z,10.23
2019-04-04T22:13:48.343Z,9.70
2019-04-04T22:16:18.674Z,10.57
2019-04-04T22:18:48.972Z,10.27
2019-04-04T22:21:19.286Z,10.23
2019-04-04T22:23:49.585Z,10.03
2019-04-04T22:26:22.282Z,11.33
2019-04-04T22:28:52.846Z,10.63
2019-04-04T22:31:23.210Z,10.43
2019-04-04T22:33:54.837Z,12.00
2019-04-04T22:36:25.326Z,11.73
2019-04-04T22:38:55.735Z,11.40
2019-04-04T22:41:26.041Z,11.27
2019-04-04T22:44:03.424Z,10.83
2019-04-04T22:46:28.380Z,11.03
2019-04-04T22:48:58.714Z,11.63
2019-04-04T22:51:30.913Z,11.13
2019-04-04T22:54:01.158Z,11.13
2019-04-04T22:56:31.502Z,11.63
2019-04-04T22:59:01.858Z,11.37
2019-04-04T23:01:32.161Z,11.97
2019-04-04T23:04:02.466Z,11.87
2019-04-04T23:06:33.006Z,12.27
2019-04-04T23:09:04.452Z,12.07
2019-04-04T23:11:35.779Z,11.50
2019-04-04T23:14:07.411Z,13.30
2019-04-04T23:16:38.039Z,12.50
2019-04-04T23:19:08.314Z,12.23
2019-04-04T23:21:38.777Z,12.47
2019-04-04T23:24:09.082Z,11.90
2019-04-04T23:26:39.498Z,12.70
2019-04-04T23:29:09.991Z,11.60
2019-04-04T23:31:40.355Z,13.27
2019-04-04T23:34:10.694Z,13.13
2019-04-04T23:36:41.424Z,13.50
2019-04-04T23:39:11.762Z,13.43
2019-04-04T23:41:42.093Z,12.27
2019-04-04T23:44:12.494Z,13.53
2019-04-04T23:46:42.815Z,13.20
2019-04-04T23:49:13.146Z,12.77
2019-04-04T23:51:43.455Z,13.07
2019-04-04T23:54:13.805Z,12.10
2019-04-04T23:56:44.126Z,13.00
2019-04-04T23:59:14.474Z,12.00
